createdAt,value
2023-03-25T00:00:27.594Z,79.48
2023-03-25T00:01:27.714Z,79.17
2023-03-25T00:02:27.730Z,78.97
2023-03-25T00:03:27.567Z,79.17
2023-03-25T00:04:27.574Z,78.25
2023-03-25T00:05:27.526Z,78.08
2023-03-25T00:06:27.508Z,78.28
2023-03-25T00:07:27.514Z,78.39
2023-03-25T00:08:27.477Z,77.98
2023-03-25T00:09:27.459Z,78.39
2023-03-25T00:10:27.485Z,78.80
2023-03-25T00:11:27.436Z,78.70
2023-03-25T00:12:27.416Z,78.59
2023-03-25T00:13:27.502Z,78.70
2023-03-25T00:14:27.445Z,78.59
2023-03-25T00:15:27.398Z,78.80
2023-03-25T00:16:27.484Z,78.80
2023-03-25T00:17:27.374Z,78.28
2023-03-25T00:18:27.338Z,78.28
2023-03-25T00:19:27.463Z,79.00
2023-03-25T00:20:27.312Z,79.21
2023-03-25T00:21:27.318Z,78.90
2023-03-25T00:22:27.304Z,78.70
2023-03-25T00:23:27.281Z,78.80
2023-03-25T00:24:27.272Z,79.00
2023-03-25T00:25:27.254Z,79.11
2023-03-25T00:26:27.324Z,79.00
2023-03-25T00:27:27.217Z,78.70
2023-03-25T00:28:27.228Z,78.90
2023-03-25T00:29:27.199Z,78.70
2023-03-25T00:30:27.193Z,78.49
2023-03-25T00:31:27.298Z,78.59
2023-03-25T00:32:27.161Z,78.39
2023-03-25T00:33:27.173Z,77.98
2023-03-25T00:34:27.116Z,78.32
2023-03-25T00:35:27.163Z,78.63
2023-03-25T00:36:27.149Z,78.53
2023-03-25T00:37:27.085Z,78.12
2023-03-25T00:38:27.069Z,78.32
2023-03-25T00:39:27.047Z,78.42
2023-03-25T00:40:27.041Z,78.74
2023-03-25T00:41:27.037Z,78.74
2023-03-25T00:42:27.006Z,78.83
2023-03-25T00:43:27.124Z,78.53
2023-03-25T00:44:26.977Z,78.63
2023-03-25T00:45:26.976Z,78.53
2023-03-25T00:46:27.097Z,78.53
2023-03-25T00:47:27.033Z,78.74
2023-03-25T00:48:26.966Z,78.83
2023-03-25T00:49:26.925Z,78.97
2023-03-25T00:50:26.926Z,79.08
2023-03-25T00:51:26.910Z,79.28
2023-03-25T00:52:26.893Z,79.38
2023-03-25T00:53:26.865Z,79.28
2023-03-25T00:54:26.844Z,79.28
2023-03-25T00:55:26.836Z,79.08
2023-03-25T00:56:26.892Z,78.87
2023-03-25T00:57:26.808Z,79.08
2023-03-25T00:58:26.791Z,79.28
2023-03-25T00:59:26.817Z,79.08
2023-03-25T01:00:26.803Z,79.08
2023-03-25T01:01:26.812Z,78.87
2023-03-25T01:02:26.849Z,78.97
2023-03-25T01:03:26.837Z,79.08
2023-03-25T01:04:26.704Z,79.18
2023-03-25T01:05:26.734Z,78.77
2023-03-25T01:06:26.714Z,78.56
2023-03-25T01:07:26.672Z,78.97
2023-03-25T01:08:26.643Z,78.87
2023-03-25T01:09:26.639Z,79.28
2023-03-25T01:10:26.620Z,79.28
2023-03-25T01:11:26.656Z,79.18
2023-03-25T01:12:26.591Z,79.38
2023-03-25T01:13:26.602Z,79.28
2023-03-25T01:14:26.562Z,79.08
2023-03-25T01:15:26.567Z,79.08
2023-03-25T01:16:26.577Z,78.87
2023-03-25T01:17:26.560Z,78.97
2023-03-25T01:18:26.510Z,79.59
2023-03-25T01:19:26.520Z,79.59
2023-03-25T01:20:26.491Z,79.28
2023-03-25T01:21:26.497Z,79.18
2023-03-25T01:22:26.453Z,79.28
2023-03-25T01:23:26.446Z,79.28
2023-03-25T01:24:26.422Z,79.49
2023-03-25T01:25:26.455Z,79.08
2023-03-25T01:26:26.420Z,78.97
2023-03-25T01:27:26.394Z,78.56
2023-03-25T01:28:26.384Z,78.46
2023-03-25T01:29:26.371Z,78.56
2023-03-25T01:30:26.346Z,78.67
2023-03-25T01:31:26.426Z,78.87
2023-03-25T01:32:26.347Z,78.77
2023-03-25T01:33:26.315Z,78.87
2023-03-25T01:34:26.317Z,79.28
2023-03-25T01:35:26.280Z,79.28
2023-03-25T01:36:26.283Z,79.18
2023-03-25T01:37:26.292Z,79.28
2023-03-25T01:38:26.247Z,79.08
2023-03-25T01:39:26.223Z,78.97
2023-03-25T01:40:26.217Z,78.87
2023-03-25T01:41:29.223Z,78.87
2023-03-25T01:42:27.182Z,78.87
2023-03-25T01:43:26.177Z,79.08
2023-03-25T01:44:26.168Z,79.08
2023-03-25T01:45:26.148Z,79.18
2023-03-25T01:46:26.260Z,79.38
2023-03-25T01:47:26.172Z,79.38
2023-03-25T01:48:26.132Z,79.38
2023-03-25T01:49:26.118Z,79.35
2023-03-25T01:50:26.122Z,79.24
2023-03-25T01:51:26.152Z,79.14
2023-03-25T01:52:26.072Z,79.35
2023-03-25T01:53:26.038Z,79.66
2023-03-25T01:54:26.036Z,79.55
2023-03-25T01:55:26.020Z,79.55
2023-03-25T01:56:26.018Z,79.66
2023-03-25T01:57:26.087Z,79.75
2023-03-25T01:58:26.030Z,80.07
2023-03-25T01:59:25.989Z,80.17
2023-03-25T02:00:25.956Z,80.27
2023-03-25T02:01:25.941Z,80.47
2023-03-25T02:02:25.956Z,80.88
2023-03-25T02:03:25.969Z,81.29
2023-03-25T02:04:25.898Z,81.60
2023-03-25T02:05:25.872Z,81.71
2023-03-25T02:06:25.882Z,81.71
2023-03-25T02:07:25.877Z,81.71
2023-03-25T02:08:25.854Z,81.91
2023-03-25T02:09:25.833Z,82.32
2023-03-25T02:10:25.820Z,82.32
2023-03-25T02:11:25.801Z,82.63
2023-03-25T02:12:25.806Z,82.73
2023-03-25T02:13:25.776Z,83.49
2023-03-25T02:14:25.766Z,83.80
2023-03-25T02:15:25.745Z,84.10
2023-03-25T02:16:25.788Z,84.41
2023-03-25T02:17:25.762Z,84.61
2023-03-25T02:18:25.711Z,84.52
2023-03-25T02:19:25.692Z,84.52
2023-03-25T02:20:25.694Z,84.52
2023-03-25T02:21:25.664Z,84.82
2023-03-25T02:22:25.726Z,85.13
2023-03-25T02:23:25.636Z,85.54
2023-03-25T02:24:25.634Z,85.95
2023-03-25T02:25:25.619Z,86.57
2023-03-25T02:26:25.621Z,86.60
2023-03-25T02:27:25.602Z,86.50
2023-03-25T02:28:25.584Z,86.71
2023-03-25T02:29:25.559Z,87.02
2023-03-25T02:30:25.554Z,86.91
2023-03-25T02:31:25.677Z,87.43
2023-03-25T02:32:25.543Z,87.63
2023-03-25T02:33:25.479Z,87.73
2023-03-25T02:34:25.485Z,87.53
2023-03-25T02:35:25.502Z,87.63
2023-03-25T02:36:25.467Z,87.63
2023-03-25T02:37:25.476Z,87.63
2023-03-25T02:38:25.441Z,87.53
2023-03-25T02:39:25.438Z,87.63
2023-03-25T02:40:25.412Z,86.40
2023-03-25T02:41:25.398Z,86.09
2023-03-25T02:42:25.379Z,86.09
2023-03-25T02:43:25.394Z,86.30
2023-03-25T02:44:25.368Z,86.30
2023-03-25T02:45:25.345Z,86.30
2023-03-25T02:46:25.374Z,86.30
2023-03-25T02:47:25.373Z,86.19
2023-03-25T02:48:25.390Z,86.30
2023-03-25T02:49:25.288Z,86.36
2023-03-25T02:50:25.273Z,86.36
2023-03-25T02:51:25.255Z,86.36
2023-03-25T02:52:25.258Z,86.46
2023-03-25T02:53:25.243Z,86.46
2023-03-25T02:54:25.200Z,86.57
2023-03-25T02:55:25.195Z,86.57
2023-03-25T02:56:25.189Z,86.71
2023-03-25T02:57:25.160Z,86.57
2023-03-25T02:58:25.193Z,87.08
2023-03-25T02:59:25.140Z,87.73
2023-03-25T03:00:25.135Z,88.04
2023-03-25T03:01:25.150Z,88.35
2023-03-25T03:02:25.188Z,88.66
2023-03-25T03:03:25.131Z,88.96
2023-03-25T03:04:25.082Z,88.96
2023-03-25T03:05:25.057Z,89.11
2023-03-25T03:06:25.047Z,89.21
2023-03-25T03:07:25.031Z,89.42
2023-03-25T03:08:25.054Z,89.52
2023-03-25T03:09:25.002Z,89.52
2023-03-25T03:10:25.001Z,89.72
2023-03-25T03:11:24.974Z,89.72
2023-03-25T03:12:24.969Z,89.87
2023-03-25T03:13:24.951Z,89.66
2023-03-25T03:14:24.958Z,89.56
2023-03-25T03:15:24.939Z,89.62
2023-03-25T03:16:25.028Z,89.72
2023-03-25T03:17:24.957Z,89.83
2023-03-25T03:18:24.955Z,89.83
2023-03-25T03:19:24.892Z,89.83
2023-03-25T03:20:24.863Z,89.83
2023-03-25T03:21:24.844Z,89.72
2023-03-25T03:22:24.843Z,89.66
2023-03-25T03:23:24.814Z,89.76
2023-03-25T03:24:24.826Z,89.76
2023-03-25T03:25:24.782Z,89.87
2023-03-25T03:26:24.781Z,89.87
2023-03-25T03:27:24.772Z,89.76
2023-03-25T03:28:24.743Z,89.87
2023-03-25T03:29:24.753Z,89.62
2023-03-25T03:30:24.738Z,89.42
2023-03-25T03:32:00.190Z,89.21
2023-03-25T03:32:25.758Z,89.21
2023-03-25T03:33:24.675Z,89.21
2023-03-25T03:34:24.685Z,89.01
2023-03-25T03:35:24.743Z,88.80
2023-03-25T03:36:24.649Z,88.80
2023-03-25T03:37:24.636Z,88.39
2023-03-25T03:38:24.622Z,87.32
2023-03-25T03:39:24.626Z,86.09
2023-03-25T03:40:24.598Z,86.09
2023-03-25T03:41:24.574Z,86.30
2023-03-25T03:42:24.564Z,86.09
2023-03-25T03:43:24.543Z,86.19
2023-03-25T03:44:24.548Z,86.30
2023-03-25T03:45:24.523Z,85.68
2023-03-25T03:46:24.577Z,85.33
2023-03-25T03:47:24.485Z,85.23
2023-03-25T03:48:24.479Z,85.23
2023-03-25T03:49:24.473Z,85.33
2023-03-25T03:50:24.448Z,85.23
2023-03-25T03:51:24.420Z,85.13
2023-03-25T03:52:24.431Z,84.61
2023-03-25T03:53:24.407Z,84.41
2023-03-25T03:54:24.414Z,84.61
2023-03-25T03:55:24.376Z,84.72
2023-03-25T03:56:24.379Z,85.44
2023-03-25T03:57:24.354Z,85.54
2023-03-25T03:58:24.339Z,85.58
2023-03-25T03:59:24.333Z,86.09
2023-03-25T04:00:24.300Z,85.78
2023-03-25T04:01:24.291Z,85.47
2023-03-25T04:02:24.433Z,85.33
2023-03-25T04:03:24.669Z,84.61
2023-03-25T04:04:24.263Z,84.52
2023-03-25T04:05:24.242Z,84.72
2023-03-25T04:06:24.229Z,84.52
2023-03-25T04:07:24.213Z,84.10
2023-03-25T04:08:24.205Z,84.10
2023-03-25T04:09:24.191Z,84.31
2023-03-25T04:10:24.170Z,84.20
2023-03-25T04:11:24.152Z,84.20
2023-03-25T04:12:24.137Z,84.45
2023-03-25T04:13:24.129Z,84.76
2023-03-25T04:14:24.133Z,84.86
2023-03-25T04:15:24.111Z,84.34
2023-03-25T04:16:24.127Z,84.34
2023-03-25T04:17:24.153Z,83.73
2023-03-25T04:18:24.060Z,84.25
2023-03-25T04:19:24.062Z,84.14
2023-03-25T04:20:24.200Z,84.04
2023-03-25T04:21:24.014Z,83.94
2023-03-25T04:22:24.006Z,83.90
2023-03-25T04:23:23.987Z,83.90
2023-03-25T04:24:23.995Z,83.90
2023-03-25T04:25:23.954Z,82.97
2023-03-25T04:26:23.962Z,82.91
2023-03-25T04:27:23.930Z,82.97
2023-03-25T04:28:23.944Z,82.97
2023-03-25T04:29:23.919Z,82.87
2023-03-25T04:30:23.902Z,82.77
2023-03-25T04:31:23.889Z,82.77
2023-03-25T04:32:23.901Z,82.87
2023-03-25T04:33:23.852Z,82.56
2023-03-25T04:34:23.853Z,82.19
2023-03-25T04:35:23.834Z,82.56
2023-03-25T04:36:23.816Z,82.91
2023-03-25T04:37:23.799Z,83.01
2023-03-25T04:38:23.832Z,83.12
2023-03-25T04:39:23.791Z,82.60
2023-03-25T04:40:23.757Z,82.70
2023-03-25T04:41:23.843Z,82.81
2023-03-25T04:42:23.719Z,82.91
2023-03-25T04:43:23.720Z,82.40
2023-03-25T04:44:23.710Z,82.29
2023-03-25T04:45:23.699Z,81.88
2023-03-25T04:46:23.760Z,82.09
2023-03-25T04:47:23.694Z,81.92
2023-03-25T04:48:23.663Z,81.71
2023-03-25T04:49:23.630Z,82.03
2023-03-25T04:50:23.632Z,82.27
2023-03-25T04:51:23.627Z,82.06
2023-03-25T04:52:23.591Z,82.68
2023-03-25T04:53:23.575Z,83.09
2023-03-25T04:54:23.602Z,83.29
2023-03-25T04:55:23.587Z,82.89
2023-03-25T04:56:23.600Z,82.27
2023-03-25T04:57:23.524Z,82.37
2023-03-25T04:58:23.523Z,81.76
2023-03-25T04:59:23.505Z,82.27
2023-03-25T05:00:23.505Z,81.86
2023-03-25T05:01:23.530Z,81.86
2023-03-25T05:02:23.498Z,82.47
2023-03-25T05:03:23.439Z,82.27
2023-03-25T05:04:23.473Z,82.78
2023-03-25T05:05:23.435Z,82.78
2023-03-25T05:06:24.731Z,82.89
2023-03-25T05:07:23.400Z,83.19
2023-03-25T05:08:23.373Z,83.40
2023-03-25T05:09:23.372Z,83.19
2023-03-25T05:10:23.368Z,83.29
2023-03-25T05:11:23.332Z,83.70
2023-03-25T05:12:23.321Z,83.91
2023-03-25T05:13:23.315Z,83.70
2023-03-25T05:14:23.295Z,83.61
2023-03-25T05:15:23.292Z,83.40
2023-03-25T05:16:23.291Z,83.26
2023-03-25T05:17:23.279Z,83.15
2023-03-25T05:18:23.246Z,83.36
2023-03-25T05:19:23.226Z,83.26
2023-03-25T05:20:23.223Z,83.36
2023-03-25T05:21:23.201Z,83.56
2023-03-25T05:22:23.177Z,83.26
2023-03-25T05:23:23.178Z,83.15
2023-03-25T05:24:23.151Z,82.95
2023-03-25T05:25:23.175Z,83.15
2023-03-25T05:26:23.133Z,83.05
2023-03-25T05:27:23.125Z,83.05
2023-03-25T05:28:23.103Z,83.15
2023-03-25T05:29:23.096Z,82.89
2023-03-25T05:30:23.118Z,82.57
2023-03-25T05:31:23.075Z,82.57
2023-03-25T05:32:23.055Z,82.68
2023-03-25T05:33:23.031Z,82.78
2023-03-25T05:34:23.021Z,82.68
2023-03-25T05:35:23.047Z,82.78
2023-03-25T05:36:23.001Z,82.68
2023-03-25T05:37:22.987Z,82.78
2023-03-25T05:38:22.990Z,82.43
2023-03-25T05:39:22.983Z,81.86
2023-03-25T05:40:22.983Z,81.96
2023-03-25T05:41:22.926Z,81.96
2023-03-25T05:42:23.069Z,81.92
2023-03-25T05:43:22.976Z,82.03
2023-03-25T05:44:22.886Z,82.03
2023-03-25T05:45:22.880Z,81.92
2023-03-25T05:46:22.889Z,81.71
2023-03-25T05:47:22.838Z,81.71
2023-03-25T05:48:22.836Z,81.41
2023-03-25T05:49:22.812Z,81.30
2023-03-25T05:50:22.810Z,81.51
2023-03-25T05:51:22.785Z,81.41
2023-03-25T05:52:22.761Z,81.20
2023-03-25T05:53:22.790Z,81.41
2023-03-25T05:54:22.719Z,81.51
2023-03-25T05:55:22.763Z,81.51
2023-03-25T05:56:22.712Z,81.51
2023-03-25T05:57:22.680Z,81.41
2023-03-25T05:58:22.694Z,80.58
2023-03-25T05:59:22.672Z,80.58
2023-03-25T06:00:23.786Z,80.69
2023-03-25T06:01:32.500Z,80.69
2023-03-25T06:02:23.686Z,80.90
2023-03-25T06:03:22.703Z,81.41
2023-03-25T06:04:22.634Z,82.03
2023-03-25T06:05:22.592Z,81.62
2023-03-25T06:06:22.591Z,81.82
2023-03-25T06:07:22.578Z,81.41
2023-03-25T06:08:22.549Z,81.51
2023-03-25T06:09:22.549Z,81.51
2023-03-25T06:10:22.519Z,81.20
2023-03-25T06:11:22.522Z,81.20
2023-03-25T06:12:22.506Z,81.10
2023-03-25T06:13:22.506Z,81.00
2023-03-25T06:14:22.477Z,80.07
2023-03-25T06:15:22.470Z,79.87
2023-03-25T06:16:22.562Z,79.66
2023-03-25T06:17:29.670Z,79.97
2023-03-25T06:18:22.425Z,80.28
2023-03-25T06:19:22.405Z,80.28
2023-03-25T06:20:22.380Z,79.66
2023-03-25T06:21:22.398Z,79.15
2023-03-25T06:22:22.476Z,79.05
2023-03-25T06:23:22.352Z,78.85
2023-03-25T06:24:22.329Z,79.15
2023-03-25T06:25:22.316Z,79.36
2023-03-25T06:26:22.317Z,79.36
2023-03-25T06:27:22.297Z,79.56
2023-03-25T06:28:22.282Z,79.87
2023-03-25T06:29:22.294Z,79.56
2023-03-25T06:30:22.266Z,79.15
2023-03-25T06:31:22.321Z,79.05
2023-03-25T06:32:22.353Z,79.56
2023-03-25T06:33:42.508Z,79.66
2023-03-25T06:34:23.756Z,79.77
2023-03-25T06:35:22.223Z,79.66
2023-03-25T06:36:22.233Z,79.52
2023-03-25T06:37:22.189Z,79.11
2023-03-25T06:38:22.139Z,78.70
2023-03-25T06:39:22.139Z,78.50
2023-03-25T06:40:22.120Z,78.39
2023-03-25T06:41:22.121Z,78.39
2023-03-25T06:42:22.119Z,78.29
2023-03-25T06:43:22.076Z,78.60
2023-03-25T06:44:24.361Z,78.70
2023-03-25T06:45:22.073Z,78.67
2023-03-25T06:46:22.155Z,78.16
2023-03-25T06:47:22.024Z,78.05
2023-03-25T06:48:22.005Z,78.16
2023-03-25T06:49:22.003Z,78.46
2023-03-25T06:50:21.977Z,78.36
2023-03-25T06:51:21.989Z,78.25
2023-03-25T06:52:22.062Z,78.77
2023-03-25T06:53:22.002Z,78.46
2023-03-25T06:54:21.925Z,77.84
2023-03-25T06:55:21.921Z,77.74
2023-03-25T06:56:21.917Z,77.64
2023-03-25T06:57:21.884Z,78.16
2023-03-25T06:58:21.876Z,77.88
2023-03-25T06:59:21.859Z,78.70
2023-03-25T07:00:21.845Z,78.29
2023-03-25T07:01:21.861Z,78.39
2023-03-25T07:02:21.823Z,77.58
2023-03-25T07:03:21.815Z,77.37
2023-03-25T07:04:21.781Z,77.88
2023-03-25T07:05:21.793Z,77.78
2023-03-25T07:06:21.769Z,77.68
2023-03-25T07:07:21.758Z,77.98
2023-03-25T07:08:21.754Z,78.19
2023-03-25T07:09:21.722Z,78.39
2023-03-25T07:10:21.703Z,78.39
2023-03-25T07:11:21.710Z,78.19
2023-03-25T07:12:21.677Z,78.29
2023-03-25T07:13:21.669Z,78.39
2023-03-25T07:14:21.662Z,78.16
2023-03-25T07:15:21.664Z,78.36
2023-03-25T07:16:21.843Z,78.56
2023-03-25T07:17:21.634Z,77.33
2023-03-25T07:18:21.583Z,77.23
2023-03-25T07:19:21.590Z,77.03
2023-03-25T07:20:21.566Z,76.72
2023-03-25T07:21:21.611Z,76.62
2023-03-25T07:22:21.539Z,77.23
2023-03-25T07:23:21.533Z,77.64
2023-03-25T07:24:21.523Z,77.13
2023-03-25T07:25:21.492Z,77.44
2023-03-25T07:26:21.489Z,77.61
2023-03-25T07:27:21.469Z,77.61
2023-03-25T07:28:21.455Z,76.68
2023-03-25T07:29:21.444Z,76.37
2023-03-25T07:30:21.413Z,77.09
2023-03-25T07:31:21.464Z,77.91
2023-03-25T07:32:21.473Z,76.89
2023-03-25T07:33:21.399Z,76.37
2023-03-25T07:34:21.369Z,76.48
2023-03-25T07:35:21.387Z,76.07
2023-03-25T07:36:21.342Z,76.48
2023-03-25T07:37:21.351Z,76.48
2023-03-25T07:38:21.304Z,75.96
2023-03-25T07:39:21.310Z,75.56
2023-03-25T07:40:21.290Z,75.66
2023-03-25T07:41:21.275Z,76.37
2023-03-25T07:42:21.298Z,76.99
2023-03-25T07:43:21.266Z,77.20
2023-03-25T07:44:21.251Z,76.68
2023-03-25T07:45:21.246Z,76.68
2023-03-25T07:46:21.265Z,75.96
2023-03-25T07:47:21.241Z,75.73
2023-03-25T07:48:21.196Z,75.73
2023-03-25T07:49:21.176Z,75.31
2023-03-25T07:50:22.528Z,75.62
2023-03-25T07:51:21.147Z,75.62
2023-03-25T07:52:21.144Z,75.31
2023-03-25T07:53:21.126Z,75.73
2023-03-25T07:54:21.110Z,75.93
2023-03-25T07:55:21.086Z,75.52
2023-03-25T07:56:21.075Z,74.36
2023-03-25T07:57:21.080Z,73.85
2023-03-25T07:58:21.070Z,75.18
2023-03-25T07:59:21.039Z,74.15
2023-03-25T08:00:21.020Z,73.95
2023-03-25T08:01:21.022Z,75.18
2023-03-25T08:02:21.056Z,74.87
2023-03-25T08:03:21.056Z,79.64
2023-03-25T08:04:20.977Z,77.97
2023-03-25T08:05:20.957Z,73.64
2023-03-25T08:06:20.954Z,72.34
2023-03-25T08:07:20.952Z,72.96
2023-03-25T08:08:20.913Z,72.45
2023-03-25T08:09:20.905Z,72.86
2023-03-25T08:10:20.891Z,72.04
2023-03-25T08:11:20.881Z,72.04
2023-03-25T08:12:20.886Z,72.55
2023-03-25T08:13:20.846Z,72.65
2023-03-25T08:14:20.838Z,73.27
2023-03-25T08:15:20.829Z,73.88
2023-03-25T08:16:20.834Z,73.33
2023-03-25T08:17:20.802Z,72.92
2023-03-25T08:18:20.782Z,72.82
2023-03-25T08:19:20.768Z,73.23
2023-03-25T08:20:20.741Z,72.34
2023-03-25T08:21:20.750Z,73.47
2023-03-25T08:22:20.738Z,75.10
2023-03-25T08:23:20.711Z,74.80
2023-03-25T08:24:20.706Z,75.01
2023-03-25T08:25:20.673Z,75.93
2023-03-25T08:26:20.669Z,74.60
2023-03-25T08:27:20.677Z,76.64
2023-03-25T08:28:20.638Z,79.94
2023-03-25T08:29:20.779Z,74.69
2023-03-25T08:30:20.631Z,76.81
2023-03-25T08:31:20.636Z,76.70
2023-03-25T08:32:20.649Z,74.01
2023-03-25T08:33:20.580Z,72.28
2023-03-25T08:34:20.599Z,72.45
2023-03-25T08:35:20.600Z,72.04
2023-03-25T08:36:20.578Z,73.36
2023-03-25T08:37:20.536Z,71.02
2023-03-25T08:38:20.528Z,72.96
2023-03-25T08:39:20.610Z,71.43
2023-03-25T08:40:20.498Z,71.36
2023-03-25T08:41:20.444Z,70.98
2023-03-25T08:42:20.463Z,71.70
2023-03-25T08:43:20.443Z,71.22
2023-03-25T08:44:20.411Z,72.58
2023-03-25T08:45:20.409Z,72.17
2023-03-25T08:46:20.429Z,73.03
2023-03-25T08:47:20.445Z,73.94
2023-03-25T08:48:20.377Z,73.64
2023-03-25T08:49:20.359Z,73.85
2023-03-25T08:50:20.343Z,74.80
2023-03-25T08:51:20.337Z,75.31
2023-03-25T08:52:20.355Z,74.08
2023-03-25T08:53:20.307Z,73.27
2023-03-25T08:54:20.316Z,73.78
2023-03-25T08:55:20.280Z,73.91
2023-03-25T08:56:20.286Z,74.02
2023-03-25T08:57:20.283Z,73.10
2023-03-25T08:58:20.227Z,73.33
2023-03-25T08:59:20.221Z,73.85
2023-03-25T09:00:20.211Z,74.39
2023-03-25T09:01:20.254Z,74.63
2023-03-25T09:02:20.180Z,76.72
2023-03-25T09:03:20.173Z,77.88
2023-03-25T09:04:20.152Z,79.25
2023-03-25T09:05:20.193Z,81.04
2023-03-25T09:06:20.136Z,82.31
2023-03-25T09:07:20.117Z,82.18
2023-03-25T09:08:20.118Z,83.86
2023-03-25T09:09:20.099Z,83.59
2023-03-25T09:10:20.076Z,83.59
2023-03-25T09:11:33.956Z,84.42
2023-03-25T09:12:21.048Z,84.48
2023-03-25T09:13:20.052Z,84.21
2023-03-25T09:14:20.027Z,84.00
2023-03-25T09:15:19.983Z,84.62
2023-03-25T09:16:20.025Z,86.02
2023-03-25T09:17:19.978Z,86.33
2023-03-25T09:18:19.975Z,85.92
2023-03-25T09:19:19.953Z,85.98
2023-03-25T09:20:19.946Z,85.47
2023-03-25T09:21:19.954Z,85.74
2023-03-25T09:22:19.913Z,86.05
2023-03-25T09:23:19.914Z,85.28
2023-03-25T09:24:19.890Z,84.67
2023-03-25T09:25:19.873Z,83.91
2023-03-25T09:26:19.868Z,85.52
2023-03-25T09:27:19.847Z,81.62
2023-03-25T09:28:19.894Z,82.13
2023-03-25T09:29:19.814Z,82.54
2023-03-25T09:30:19.812Z,82.23
2023-03-25T09:31:19.841Z,82.75
2023-03-25T09:32:19.760Z,81.30
2023-03-25T09:33:19.769Z,81.51
2023-03-25T09:34:19.743Z,81.92
2023-03-25T09:35:19.799Z,83.36
2023-03-25T09:36:19.719Z,83.56
2023-03-25T09:37:19.775Z,81.00
2023-03-25T09:38:19.737Z,81.10
2023-03-25T09:39:19.668Z,80.52
2023-03-25T09:40:19.667Z,81.24
2023-03-25T09:41:19.651Z,81.45
2023-03-25T09:42:19.636Z,80.58
2023-03-25T09:43:19.630Z,80.28
2023-03-25T09:44:19.623Z,87.90
2023-03-25T09:45:19.599Z,81.02
2023-03-25T09:46:19.616Z,79.66
2023-03-25T09:47:19.590Z,80.37
2023-03-25T09:48:19.572Z,79.55
2023-03-25T09:49:19.540Z,79.66
2023-03-25T09:50:19.542Z,79.82
2023-03-25T09:51:19.504Z,79.82
2023-03-25T09:52:19.523Z,79.72
2023-03-25T09:53:19.496Z,80.23
2023-03-25T09:54:19.473Z,78.97
2023-03-25T09:55:19.451Z,77.36
2023-03-25T09:56:19.445Z,77.16
2023-03-25T09:57:19.483Z,77.36
2023-03-25T09:58:19.433Z,79.07
2023-03-25T09:59:19.409Z,77.94
2023-03-25T10:00:19.386Z,79.89
2023-03-25T10:01:19.420Z,79.58
2023-03-25T10:02:19.421Z,77.64
2023-03-25T10:03:19.407Z,75.18
2023-03-25T10:04:19.345Z,75.38
2023-03-25T10:05:19.318Z,77.53
2023-03-25T10:06:19.307Z,76.40
2023-03-25T10:07:19.304Z,76.57
2023-03-25T10:08:19.297Z,77.09
2023-03-25T10:09:19.270Z,75.45
2023-03-25T10:10:19.257Z,73.44
2023-03-25T10:11:19.244Z,74.66
2023-03-25T10:12:19.227Z,75.28
2023-03-25T10:13:20.087Z,74.94
2023-03-25T10:14:19.208Z,75.86
2023-03-25T10:15:19.187Z,74.49
2023-03-25T10:16:19.226Z,75.07
2023-03-25T10:17:19.179Z,75.27
2023-03-25T10:18:19.153Z,74.05
2023-03-25T10:19:19.127Z,75.45
2023-03-25T10:20:19.118Z,76.53
2023-03-25T10:21:19.096Z,72.45
2023-03-25T10:22:19.078Z,72.14
2023-03-25T10:23:19.089Z,72.14
2023-03-25T10:24:19.060Z,71.94
2023-03-25T10:25:19.049Z,70.61
2023-03-25T10:26:19.041Z,71.33
2023-03-25T10:27:19.020Z,71.73
2023-03-25T10:28:19.047Z,70.81
2023-03-25T10:29:19.000Z,71.22
2023-03-25T10:30:18.981Z,71.50
2023-03-25T10:31:18.990Z,69.76
2023-03-25T10:32:18.949Z,67.54
2023-03-25T10:33:18.976Z,70.20
2023-03-25T10:34:18.944Z,70.20
2023-03-25T10:35:18.959Z,70.61
2023-03-25T10:36:18.899Z,70.92
2023-03-25T10:37:18.887Z,70.61
2023-03-25T10:38:18.913Z,69.07
2023-03-25T10:39:18.891Z,69.48
2023-03-25T10:40:21.002Z,71.33
2023-03-25T10:41:18.845Z,70.00
2023-03-25T10:42:18.821Z,70.92
2023-03-25T10:43:18.819Z,71.42
2023-03-25T10:44:18.802Z,71.83
2023-03-25T10:45:18.775Z,69.59
2023-03-25T10:46:18.817Z,69.48
2023-03-25T10:47:18.746Z,69.59
2023-03-25T10:48:18.740Z,69.79
2023-03-25T10:49:18.761Z,69.38
2023-03-25T10:50:18.726Z,66.72
2023-03-25T10:51:18.700Z,67.85
2023-03-25T10:52:18.694Z,67.85
2023-03-25T10:53:18.698Z,67.54
2023-03-25T10:54:18.681Z,66.72
2023-03-25T10:55:18.652Z,67.65
2023-03-25T10:56:18.640Z,66.11
2023-03-25T10:57:18.621Z,67.34
2023-03-25T10:58:18.614Z,67.51
2023-03-25T10:59:18.876Z,67.82
2023-03-25T11:00:18.576Z,67.10
2023-03-25T11:01:18.587Z,66.72
2023-03-25T11:02:18.649Z,67.82
2023-03-25T11:03:18.572Z,68.33
2023-03-25T11:04:18.560Z,67.68
2023-03-25T11:05:18.999Z,65.41
2023-03-25T11:06:18.505Z,65.71
2023-03-25T11:07:18.483Z,66.33
2023-03-25T11:08:24.150Z,65.78
2023-03-25T11:09:19.493Z,67.41
2023-03-25T11:10:18.461Z,67.29
2023-03-25T11:11:18.424Z,64.32
2023-03-25T11:12:18.416Z,64.53
2023-03-25T11:13:18.408Z,64.53
2023-03-25T11:14:18.408Z,64.43
2023-03-25T11:15:18.444Z,63.51
2023-03-25T11:16:18.403Z,63.20
2023-03-25T11:17:18.358Z,63.89
2023-03-25T11:18:18.333Z,62.46
2023-03-25T11:19:18.345Z,62.56
2023-03-25T11:20:18.304Z,63.18
2023-03-25T11:21:18.288Z,61.14
2023-03-25T11:22:18.284Z,62.26
2023-03-25T11:23:18.272Z,63.65
2023-03-25T11:24:18.282Z,62.02
2023-03-25T11:25:18.238Z,61.82
2023-03-25T11:26:18.227Z,62.13
2023-03-25T11:27:18.268Z,61.59
2023-03-25T11:28:18.267Z,58.13
2023-03-25T11:29:19.279Z,57.44
2023-03-25T11:30:18.227Z,58.97
2023-03-25T11:31:18.298Z,56.83
2023-03-25T11:32:18.167Z,58.56
2023-03-25T11:33:18.194Z,58.87
2023-03-25T11:34:18.235Z,58.15
2023-03-25T11:35:18.156Z,57.85
2023-03-25T11:36:18.118Z,58.05
2023-03-25T11:37:18.185Z,58.36
2023-03-25T11:38:18.093Z,59.51
2023-03-25T11:39:18.781Z,59.58
2023-03-25T11:40:18.163Z,59.68
2023-03-25T11:41:18.079Z,58.76
2023-03-25T11:42:18.105Z,60.60
2023-03-25T11:43:18.041Z,61.82
2023-03-25T11:44:18.242Z,60.06
2023-03-25T11:45:18.000Z,59.05
2023-03-25T11:46:18.065Z,59.75
2023-03-25T11:47:17.969Z,59.73
2023-03-25T11:48:17.951Z,59.83
2023-03-25T11:49:17.969Z,60.72
2023-03-25T11:50:17.977Z,57.36
2023-03-25T11:51:18.061Z,57.67
2023-03-25T11:52:17.961Z,57.74
2023-03-25T11:53:17.874Z,57.34
2023-03-25T11:54:17.901Z,57.03
2023-03-25T11:55:17.850Z,56.01
2023-03-25T11:56:17.896Z,56.32
2023-03-25T11:57:17.864Z,55.91
2023-03-25T11:58:17.845Z,57.34
2023-03-25T11:59:17.982Z,56.75
2023-03-25T12:00:17.939Z,57.29
2023-03-25T12:01:17.755Z,57.18
2023-03-25T12:02:17.779Z,57.18
2023-03-25T12:03:20.105Z,57.52
2023-03-25T12:04:17.844Z,58.36
2023-03-25T12:05:17.711Z,58.87
2023-03-25T12:06:17.712Z,60.30
2023-03-25T12:07:17.672Z,60.93
2023-03-25T12:08:17.674Z,61.65
2023-03-25T12:09:17.653Z,59.71
2023-03-25T12:10:17.639Z,61.04
2023-03-25T12:11:17.623Z,62.16
2023-03-25T12:12:17.619Z,62.87
2023-03-25T12:13:17.608Z,62.74
2023-03-25T12:14:17.646Z,62.54
2023-03-25T12:15:17.594Z,63.73
2023-03-25T12:16:17.626Z,62.30
2023-03-25T12:17:17.635Z,60.85
2023-03-25T12:18:17.535Z,61.15
2023-03-25T12:19:17.618Z,61.15
2023-03-25T12:20:17.519Z,60.64
2023-03-25T12:21:17.483Z,60.64
2023-03-25T12:22:17.491Z,61.22
2023-03-25T12:23:17.474Z,60.44
2023-03-25T12:24:17.471Z,59.42
2023-03-25T12:25:17.434Z,61.66
2023-03-25T12:26:17.458Z,59.93
2023-03-25T12:27:17.419Z,59.66
2023-03-25T12:28:17.406Z,61.11
2023-03-25T12:29:17.392Z,61.31
2023-03-25T12:30:17.373Z,61.04
2023-03-25T12:31:17.383Z,62.87
2023-03-25T12:32:17.364Z,63.18
2023-03-25T12:33:17.324Z,65.11
2023-03-25T12:34:17.391Z,66.77
2023-03-25T12:35:17.357Z,67.18
2023-03-25T12:36:17.338Z,64.66
2023-03-25T12:37:17.439Z,65.51
2023-03-25T12:38:17.298Z,67.82
2023-03-25T12:39:17.298Z,65.28
2023-03-25T12:40:17.339Z,65.17
2023-03-25T12:41:17.237Z,66.06
2023-03-25T12:42:17.217Z,65.04
2023-03-25T12:43:17.230Z,66.54
2023-03-25T12:44:17.214Z,64.20
2023-03-25T12:45:17.244Z,61.95
2023-03-25T12:46:17.327Z,62.43
2023-03-25T12:47:17.146Z,60.91
2023-03-25T12:48:17.140Z,60.06
2023-03-25T12:49:17.113Z,60.19
2023-03-25T12:50:17.121Z,60.57
2023-03-25T12:51:17.085Z,59.86
2023-03-25T12:52:17.089Z,61.08